Time;durP1;ratioP1;P1;durP2;ratioP2;P2;SDS_P1;SDS_P2;PMS_P1;PMS_P2;Temp;Humidity;BMP_temperature;BMP_pressure;BME280_temperature;BME280_humidity;BME280_pressure;Samples;Min_cycle;Max_cycle;Signal;HPM_P1;HPM_P2
2023/10/21 00:02:07;;;;;;;215.02;68.40;;;9.70;99.90;;;;;;4954730;28;20039;-81
2023/10/21 00:04:33;;;;;;;360.85;88.03;;;9.70;99.90;;;;;;4956444;28;20050;-81
2023/10/21 00:06:59;;;;;;;333.60;83.13;;;9.60;99.90;;;;;;4956335;28;20057;-80
2023/10/21 00:09:24;;;;;;;183.10;62.60;;;9.60;99.90;;;;;;4971950;28;20047;-81
2023/10/21 00:11:51;;;;;;;259.27;75.65;;;9.60;99.90;;;;;;4960868;28;20180;-80
2023/10/21 00:14:17;;;;;;;183.75;65.65;;;9.60;99.90;;;;;;4967121;28;20073;-81
2023/10/21 00:16:43;;;;;;;161.85;59.67;;;9.60;99.90;;;;;;4960758;28;20038;-80
2023/10/21 00:19:10;;;;;;;210.35;67.90;;;9.50;99.90;;;;;;4971213;28;20590;-80
2023/10/21 00:21:37;;;;;;;187.73;63.00;;;9.60;99.90;;;;;;4971311;28;20050;-80
2023/10/21 00:24:03;;;;;;;182.05;64.30;;;9.60;99.90;;;;;;4965675;28;20508;-80
2023/10/21 00:26:28;;;;;;;164.05;60.65;;;9.50;99.90;;;;;;4955213;28;20729;-80
2023/10/21 00:28:54;;;;;;;283.80;76.97;;;9.60;99.90;;;;;;4959246;28;20044;-80
2023/10/21 00:31:21;;;;;;;201.57;61.92;;;9.60;99.90;;;;;;4939068;28;20551;-80
2023/10/21 00:33:46;;;;;;;212.15;64.95;;;9.80;99.90;;;;;;4955284;28;20089;-80
2023/10/21 00:36:12;;;;;;;265.98;71.80;;;9.50;99.90;;;;;;4938080;28;20042;-80
2023/10/21 00:38:38;;;;;;;159.82;56.20;;;9.50;99.90;;;;;;4974432;28;20114;-80
2023/10/21 00:41:03;;;;;;;178.70;60.35;;;9.50;99.90;;;;;;4940021;28;20038;-80
2023/10/21 00:43:40;;;;;;;321.52;79.63;;;9.50;99.90;;;;;;4943939;28;20485;-80
2023/10/21 00:46:18;;;;;;;212.85;63.70;;;9.50;99.90;;;;;;4971768;28;20077;-80
2023/10/21 00:48:45;;;;;;;311.33;77.68;;;9.60;99.90;;;;;;4956352;28;20034;-80
2023/10/21 00:51:11;;;;;;;309.15;77.07;;;9.50;99.90;;;;;;4939453;28;20050;-80
2023/10/21 00:53:37;;;;;;;217.32;65.05;;;9.50;99.90;;;;;;4955359;28;20043;-81
2023/10/21 00:56:06;;;;;;;349.85;83.32;;;9.40;99.90;;;;;;4954776;28;20041;-81
2023/10/21 00:58:32;;;;;;;388.27;84.38;;;9.40;99.90;;;;;;4954830;28;20031;-80
2023/10/21 01:01:01;;;;;;;266.85;70.97;;;9.40;99.90;;;;;;4971520;28;20042;-81
2023/10/21 01:03:28;;;;;;;311.50;75.65;;;9.40;99.90;;;;;;4971234;28;20041;-81
2023/10/21 01:05:54;;;;;;;404.27;90.70;;;9.40;99.90;;;;;;4955273;28;20094;-80
2023/10/21 01:08:19;;;;;;;336.65;82.07;;;9.30;99.90;;;;;;4952365;28;20511;-81
2023/10/21 01:10:46;;;;;;;391.58;85.50;;;9.10;99.90;;;;;;4960664;28;20038;-80
2023/10/21 01:13:11;;;;;;;321.80;79.43;;;9.30;99.90;;;;;;4954804;28;20046;-80
2023/10/21 01:15:37;;;;;;;376.90;86.35;;;9.20;99.90;;;;;;4942930;28;20085;-81
2023/10/21 01:18:06;;;;;;;257.83;71.95;;;9.20;99.90;;;;;;4971375;28;20051;-81
2023/10/21 01:20:32;;;;;;;369.40;87.22;;;9.20;99.90;;;;;;4951880;28;20035;-80
2023/10/21 01:22:59;;;;;;;364.88;83.53;;;9.20;99.90;;;;;;4959270;28;20034;-81
2023/10/21 01:25:25;;;;;;;408.08;90.50;;;9.20;99.90;;;;;;4970397;28;20053;-81
2023/10/21 01:27:54;;;;;;;377.77;83.53;;;9.20;99.90;;;;;;4970280;28;20043;-80
2023/10/21 01:30:21;;;;;;;296.77;75.40;;;9.10;99.90;;;;;;4961537;28;20054;-80
2023/10/21 01:32:48;;;;;;;465.92;94.13;;;9.10;99.90;;;;;;4953059;28;20123;-80
2023/10/21 01:35:14;;;;;;;421.95;91.10;;;9.00;99.90;;;;;;4953633;28;20121;-80
2023/10/21 01:37:40;;;;;;;349.50;77.90;;;9.10;99.90;;;;;;4984980;28;20043;-80
2023/10/21 01:40:09;;;;;;;236.95;67.10;;;9.00;99.90;;;;;;4972821;28;20511;-80
2023/10/21 01:42:42;;;;;;;323.50;80.55;;;9.00;99.90;;;;;;4937779;28;20074;-80
2023/10/21 01:45:09;;;;;;;326.85;78.43;;;9.00;99.90;;;;;;4967144;28;20042;-80
2023/10/21 01:47:35;;;;;;;324.55;76.95;;;9.00;99.90;;;;;;4955725;28;20058;-80
2023/10/21 01:50:07;;;;;;;199.18;62.35;;;9.00;99.90;;;;;;4970621;28;20463;-80
2023/10/21 01:52:35;;;;;;;200.18;60.67;;;8.90;99.90;;;;;;4940047;28;20078;-80
2023/10/21 01:55:04;;;;;;;357.23;82.30;;;8.90;99.90;;;;;;4936903;28;20039;-81
2023/10/21 01:57:32;;;;;;;219.73;63.17;;;9.00;99.90;;;;;;4970166;28;20151;-81
2023/10/21 02:00:05;;;;;;;184.90;59.78;;;8.90;99.90;;;;;;4943584;28;20035;-81
2023/10/21 02:02:31;;;;;;;298.67;74.85;;;9.00;99.90;;;;;;4954036;28;20038;-81
2023/10/21 02:04:57;;;;;;;212.75;62.72;;;9.00;99.90;;;;;;4970509;28;20046;-81
2023/10/21 02:07:22;;;;;;;172.82;57.95;;;9.00;99.90;;;;;;4958485;28;20136;-81
2023/10/21 02:09:48;;;;;;;266.77;75.70;;;9.00;99.90;;;;;;4981624;28;20464;-80
2023/10/21 02:12:14;;;;;;;176.07;58.97;;;9.00;99.90;;;;;;4985967;28;20050;-81
2023/10/21 02:14:40;;;;;;;265.90;71.20;;;9.10;99.90;;;;;;4968988;28;20750;-80
2023/10/21 02:17:06;;;;;;;180.60;61.30;;;9.10;99.90;;;;;;4936687;28;20039;-81
2023/10/21 02:19:32;;;;;;;213.82;64.68;;;9.10;99.90;;;;;;4966874;28;20049;-81
2023/10/21 02:21:58;;;;;;;223.52;67.72;;;9.10;99.90;;;;;;4982078;28;20058;-81
2023/10/21 02:24:24;;;;;;;203.10;64.65;;;9.20;99.90;;;;;;4969393;28;20093;-81
2023/10/21 02:26:50;;;;;;;321.00;76.93;;;9.20;99.90;;;;;;4960926;28;20053;-81
2023/10/21 02:29:16;;;;;;;254.48;70.38;;;9.20;99.90;;;;;;4944540;28;20420;-81
2023/10/21 02:31:41;;;;;;;228.18;64.13;;;9.20;99.90;;;;;;4965431;28;20542;-81
2023/10/21 02:34:07;;;;;;;173.48;59.38;;;9.10;99.90;;;;;;4937235;28;20035;-81
2023/10/21 02:36:34;;;;;;;316.25;77.63;;;9.10;99.90;;;;;;4962825;28;20407;-81
2023/10/21 02:39:00;;;;;;;278.42;72.07;;;9.10;99.90;;;;;;4969880;28;20054;-81
2023/10/21 02:41:26;;;;;;;261.20;71.45;;;9.20;99.90;;;;;;4936191;28;20410;-81
2023/10/21 02:43:52;;;;;;;159.32;55.17;;;9.20;99.90;;;;;;4937307;28;20046;-80
2023/10/21 02:46:21;;;;;;;248.88;66.97;;;9.10;99.90;;;;;;4934521;28;20062;-81
2023/10/21 02:48:47;;;;;;;217.85;62.35;;;9.20;99.90;;;;;;4957920;28;20042;-81
2023/10/21 02:51:17;;;;;;;252.20;68.47;;;9.20;99.90;;;;;;4960855;28;20062;-80
2023/10/21 02:53:43;;;;;;;287.58;71.43;;;9.20;99.90;;;;;;4944410;28;20041;-81
2023/10/21 02:56:13;;;;;;;149.10;54.08;;;9.20;99.90;;;;;;4969450;28;20451;-80
2023/10/21 02:58:40;;;;;;;180.38;58.67;;;9.20;99.90;;;;;;4952536;28;20129;-80
2023/10/21 03:01:16;;;;;;;184.18;58.58;;;9.20;99.90;;;;;;4968842;28;20046;-81
2023/10/21 03:03:42;;;;;;;132.63;52.28;;;9.30;99.90;;;;;;4957494;28;20068;-80
2023/10/21 03:06:11;;;;;;;149.70;56.45;;;9.30;99.90;;;;;;4969876;28;20509;-81
2023/10/21 03:08:37;;;;;;;198.63;62.60;;;9.30;99.90;;;;;;4955237;28;20134;-81
2023/10/21 03:11:04;;;;;;;146.65;54.00;;;9.40;99.90;;;;;;4968414;28;20798;-80
2023/10/21 03:13:30;;;;;;;187.32;57.42;;;9.40;99.90;;;;;;4968909;28;20039;-81
2023/10/21 03:15:57;;;;;;;191.88;58.67;;;9.50;99.90;;;;;;4975950;28;20066;-81
2023/10/21 03:18:23;;;;;;;228.88;65.28;;;9.40;99.90;;;;;;4965720;28;20056;-80
2023/10/21 03:20:52;;;;;;;168.52;55.33;;;9.50;99.90;;;;;;4968443;28;20500;-81
2023/10/21 03:23:18;;;;;;;180.32;57.55;;;9.70;99.90;;;;;;4959014;28;20031;-81
2023/10/21 03:25:54;;;;;;;175.18;56.60;;;9.50;99.90;;;;;;4965627;28;20047;-81
2023/10/21 03:28:20;;;;;;;206.32;59.70;;;9.50;99.90;;;;;;4936037;28;20419;-80
2023/10/21 03:30:47;;;;;;;183.73;54.88;;;9.50;99.90;;;;;;4952007;28;20054;-80
2023/10/21 03:33:13;;;;;;;139.98;51.33;;;9.60;99.90;;;;;;4952761;28;20435;-81
2023/10/21 03:35:38;;;;;;;138.68;48.72;;;9.60;99.90;;;;;;4968080;28;20069;-81
2023/10/21 03:38:04;;;;;;;148.07;49.72;;;9.60;99.90;;;;;;4950131;28;20496;-81
2023/10/21 03:40:30;;;;;;;124.60;45.30;;;9.60;99.90;;;;;;4968040;28;20085;-81
2023/10/21 03:42:55;;;;;;;145.48;49.03;;;9.60;99.90;;;;;;4968015;28;20496;-81
2023/10/21 03:45:21;;;;;;;280.48;65.95;;;9.60;99.90;;;;;;4952804;28;20039;-81
2023/10/21 03:47:47;;;;;;;129.93;45.42;;;9.60;99.90;;;;;;4936367;28;20034;-81
2023/10/21 03:50:12;;;;;;;143.43;49.08;;;9.70;99.90;;;;;;4952966;28;20046;-81
2023/10/21 03:52:41;;;;;;;159.65;50.72;;;9.70;99.90;;;;;;4967937;28;20070;-81
2023/10/21 03:55:07;;;;;;;152.30;49.45;;;9.70;99.90;;;;;;4948950;28;20035;-81
2023/10/21 03:57:33;;;;;;;132.45;47.25;;;9.80;99.90;;;;;;4960242;28;20045;-81
2023/10/21 04:00:00;;;;;;;118.85;43.78;;;9.80;99.90;;;;;;4972149;28;20042;-81
2023/10/21 04:02:25;;;;;;;128.80;45.78;;;9.80;99.90;;;;;;4972465;28;20118;-81
2023/10/21 04:04:51;;;;;;;161.55;50.50;;;9.80;99.90;;;;;;4958336;28;20119;-81
2023/10/21 04:07:17;;;;;;;107.45;41.47;;;9.80;99.90;;;;;;4971531;28;20404;-80
2023/10/21 04:09:43;;;;;;;93.38;39.40;;;9.70;99.90;;;;;;4944402;28;20169;-81
2023/10/21 04:12:09;;;;;;;93.45;38.58;;;9.80;99.90;;;;;;4960168;28;20115;-80
2023/10/21 04:14:36;;;;;;;101.20;40.40;;;9.80;99.90;;;;;;4956374;28;20054;-81
2023/10/21 04:17:02;;;;;;;100.50;40.15;;;9.80;99.90;;;;;;4954983;28;20047;-81
2023/10/21 04:19:27;;;;;;;87.18;38.70;;;9.70;99.90;;;;;;4937481;28;20031;-81
2023/10/21 04:21:53;;;;;;;121.38;42.80;;;9.70;99.90;;;;;;4970863;28;20043;-81
2023/10/21 04:24:19;;;;;;;220.70;55.08;;;9.70;99.90;;;;;;4971357;28;20507;-81
2023/10/21 04:26:44;;;;;;;148.35;47.40;;;9.60;99.90;;;;;;4970430;28;20044;-81
2023/10/21 04:29:10;;;;;;;206.68;54.50;;;9.50;99.90;;;;;;4975394;28;20042;-80
2023/10/21 04:31:37;;;;;;;142.15;47.33;;;9.50;99.90;;;;;;4961524;28;20082;-81
2023/10/21 04:34:03;;;;;;;219.38;57.58;;;9.40;99.90;;;;;;4938852;28;20102;-81
2023/10/21 04:36:29;;;;;;;277.75;62.17;;;9.40;99.90;;;;;;4971087;28;20440;-80
2023/10/21 04:38:55;;;;;;;265.75;61.80;;;9.30;99.90;;;;;;4967818;28;20069;-81
2023/10/21 04:41:21;;;;;;;170.82;50.63;;;9.30;99.90;;;;;;4942028;28;20031;-81
2023/10/21 04:43:47;;;;;;;204.05;52.58;;;9.20;99.90;;;;;;4957000;28;20092;-81
2023/10/21 04:46:12;;;;;;;121.05;42.33;;;9.20;99.90;;;;;;4957344;28;20400;-80
2023/10/21 04:48:38;;;;;;;208.13;55.05;;;9.20;99.90;;;;;;4970550;28;20042;-80
2023/10/21 04:51:04;;;;;;;169.70;51.03;;;9.20;99.90;;;;;;4955975;28;20034;-80
2023/10/21 04:53:30;;;;;;;202.45;54.72;;;9.20;99.90;;;;;;4955341;28;20069;-81
2023/10/21 04:55:56;;;;;;;123.88;43.95;;;9.20;99.90;;;;;;4955611;28;21029;-80
2023/10/21 04:58:21;;;;;;;129.88;43.38;;;9.20;99.90;;;;;;4955354;28;20104;-81
2023/10/21 05:00:47;;;;;;;150.98;46.40;;;9.20;99.90;;;;;;4969462;28;20053;-81
2023/10/21 05:03:13;;;;;;;75.22;32.72;;;9.20;99.90;;;;;;4959064;28;20038;-80
2023/10/21 05:05:39;;;;;;;72.90;31.10;;;9.20;99.90;;;;;;4938589;28;20040;-81
2023/10/21 05:08:05;;;;;;;65.10;31.45;;;9.30;99.90;;;;;;4967600;28;20063;-81
2023/10/21 05:10:31;;;;;;;62.65;30.58;;;9.40;99.90;;;;;;4939241;28;20089;-81
2023/10/21 05:12:57;;;;;;;82.68;34.38;;;9.40;99.90;;;;;;4939411;28;20149;-81
2023/10/21 05:15:23;;;;;;;67.60;30.02;;;9.50;99.90;;;;;;4952016;28;20496;-80
2023/10/21 05:17:49;;;;;;;52.90;27.10;;;9.50;99.90;;;;;;4955062;28;20054;-81
2023/10/21 05:20:15;;;;;;;80.43;34.13;;;9.50;99.90;;;;;;4952028;28;20121;-81
2023/10/21 05:22:41;;;;;;;57.70;29.00;;;9.60;99.90;;;;;;4970478;28;20229;-81
2023/10/21 05:25:09;;;;;;;74.03;30.77;;;9.50;99.90;;;;;;4967110;28;20039;-81
2023/10/21 05:27:35;;;;;;;59.40;27.88;;;9.60;99.90;;;;;;4969288;28;20118;-80
2023/10/21 05:30:01;;;;;;;63.17;27.35;;;9.60;99.90;;;;;;4952416;28;20568;-80
2023/10/21 05:32:27;;;;;;;65.28;27.23;;;9.60;99.90;;;;;;4965056;28;20142;-80
2023/10/21 05:34:52;;;;;;;55.10;26.23;;;9.70;99.90;;;;;;4970197;28;20042;-80
2023/10/21 05:37:18;;;;;;;47.22;24.63;;;9.70;99.90;;;;;;4958135;28;20174;-80
2023/10/21 05:39:44;;;;;;;90.97;34.03;;;9.80;99.90;;;;;;4957181;28;20062;-80
2023/10/21 05:42:09;;;;;;;52.88;27.27;;;9.80;99.90;;;;;;4955676;28;20089;-80
2023/10/21 05:44:35;;;;;;;71.47;29.05;;;9.90;99.90;;;;;;4954353;28;20042;-80
2023/10/21 05:47:01;;;;;;;68.53;29.88;;;9.90;99.90;;;;;;4966594;28;20043;-80
2023/10/21 05:49:27;;;;;;;62.15;28.90;;;10.00;99.90;;;;;;4954657;28;20122;-80
2023/10/21 05:51:53;;;;;;;56.80;27.00;;;10.00;99.90;;;;;;4954287;28;20420;-80
2023/10/21 05:54:18;;;;;;;54.88;27.20;;;10.10;99.90;;;;;;4937642;28;20035;-80
2023/10/21 05:56:44;;;;;;;90.75;34.10;;;10.10;99.90;;;;;;4937529;28;20035;-80
2023/10/21 05:59:10;;;;;;;54.25;26.35;;;10.10;99.90;;;;;;4954001;28;20042;-80
2023/10/21 06:01:36;;;;;;;80.75;31.85;;;10.20;99.90;;;;;;4949170;28;20064;-80
2023/10/21 06:04:02;;;;;;;56.97;28.35;;;10.10;99.90;;;;;;4968592;28;20049;-80
2023/10/21 06:06:27;;;;;;;55.22;26.10;;;10.10;99.90;;;;;;4969207;28;20070;-80
2023/10/21 06:08:53;;;;;;;68.50;29.35;;;10.10;99.90;;;;;;4942365;28;20476;-80
2023/10/21 06:11:19;;;;;;;48.22;24.95;;;10.10;99.90;;;;;;4936499;28;20035;-80
2023/10/21 06:13:46;;;;;;;60.42;28.30;;;10.10;99.90;;;;;;4937192;28;20046;-80
2023/10/21 06:16:12;;;;;;;51.15;25.77;;;10.20;99.90;;;;;;4953830;28;20053;-80
2023/10/21 06:18:38;;;;;;;68.43;29.83;;;10.10;99.90;;;;;;4955962;28;20081;-80
2023/10/21 06:21:04;;;;;;;48.35;25.48;;;10.20;99.90;;;;;;4953334;28;20431;-81
2023/10/21 06:23:31;;;;;;;56.10;26.65;;;10.20;99.90;;;;;;4954112;28;20542;-81
2023/10/21 06:25:56;;;;;;;59.08;27.77;;;10.20;99.90;;;;;;4953078;28;20035;-81
2023/10/21 06:28:22;;;;;;;47.92;25.63;;;10.20;99.90;;;;;;4952105;28;20407;-83
2023/10/21 06:30:48;;;;;;;53.92;27.10;;;10.30;99.90;;;;;;4966159;28;20054;-83
2023/10/21 06:33:14;;;;;;;43.85;25.05;;;10.30;99.90;;;;;;4954278;28;20043;-86
2023/10/21 06:35:40;;;;;;;53.28;26.45;;;10.30;99.90;;;;;;4923518;28;20054;-84
2023/10/21 06:38:07;;;;;;;54.30;28.02;;;10.40;99.90;;;;;;4946944;28;20035;-81
2023/10/21 06:40:32;;;;;;;47.80;26.05;;;10.40;99.90;;;;;;4970629;28;20508;-82
2023/10/21 06:42:58;;;;;;;53.55;26.15;;;10.40;99.90;;;;;;4969413;28;20050;-81
2023/10/21 06:45:24;;;;;;;50.97;27.38;;;10.40;99.90;;;;;;4971331;28;20039;-82
2023/10/21 06:47:49;;;;;;;51.08;25.67;;;10.40;99.90;;;;;;4937827;28;20046;-81
2023/10/21 06:50:15;;;;;;;55.40;28.55;;;10.50;99.90;;;;;;4955034;28;20086;-81
2023/10/21 06:52:41;;;;;;;50.53;25.75;;;10.50;99.90;;;;;;4939041;28;20038;-80
2023/10/21 06:55:08;;;;;;;44.78;24.95;;;10.60;99.90;;;;;;4967756;28;20030;-81
2023/10/21 06:57:34;;;;;;;57.92;28.77;;;10.50;99.90;;;;;;4967859;28;20090;-82
2023/10/21 06:59:59;;;;;;;49.42;25.55;;;10.60;99.90;;;;;;4924809;28;20448;-81
2023/10/21 07:02:25;;;;;;;60.75;27.88;;;10.60;99.90;;;;;;4965487;28;20073;-81
2023/10/21 07:04:51;;;;;;;41.53;24.23;;;10.60;99.90;;;;;;4939080;28;20101;-82
2023/10/21 07:07:17;;;;;;;57.78;27.75;;;10.60;99.90;;;;;;4953364;28;20050;-81
2023/10/21 07:09:42;;;;;;;90.90;35.10;;;10.60;99.90;;;;;;4932016;28;20436;-81
2023/10/21 07:12:09;;;;;;;62.78;29.05;;;10.70;99.90;;;;;;4964209;28;20066;-81
2023/10/21 07:14:35;;;;;;;65.80;29.83;;;10.60;99.90;;;;;;4934158;28;20077;-81
2023/10/21 07:17:01;;;;;;;72.15;31.90;;;10.70;99.90;;;;;;4950021;29;20071;-80
2023/10/21 07:19:27;;;;;;;48.90;25.83;;;10.70;99.90;;;;;;4951370;28;20514;-82
2023/10/21 07:21:52;;;;;;;70.30;30.75;;;10.70;99.90;;;;;;4950457;29;20039;-82
2023/10/21 07:24:18;;;;;;;53.10;26.98;;;10.70;99.90;;;;;;4952210;28;20046;-82
2023/10/21 07:26:44;;;;;;;61.13;28.80;;;10.80;99.90;;;;;;4967621;28;20393;-82
2023/10/21 07:29:10;;;;;;;79.63;32.53;;;10.80;99.90;;;;;;4967924;28;20046;-82
2023/10/21 07:31:35;;;;;;;55.30;28.17;;;10.80;99.90;;;;;;4946831;28;20045;-82
2023/10/21 07:34:01;;;;;;;60.08;28.67;;;10.90;99.90;;;;;;4961389;28;20198;-82
2023/10/21 07:36:27;;;;;;;58.88;28.50;;;10.80;99.90;;;;;;4975908;28;20035;-81
2023/10/21 07:38:53;;;;;;;55.88;27.95;;;10.90;99.90;;;;;;4953072;28;20127;-82
2023/10/21 07:41:19;;;;;;;46.88;26.48;;;10.90;99.90;;;;;;4955755;28;20071;-84
2023/10/21 07:43:45;;;;;;;61.50;29.27;;;11.00;99.90;;;;;;4962264;28;20038;-84
2023/10/21 07:46:11;;;;;;;50.28;27.63;;;11.00;99.90;;;;;;4973940;28;20046;-81
2023/10/21 07:48:37;;;;;;;75.55;30.67;;;11.10;99.90;;;;;;4974083;28;20031;-80
2023/10/21 07:51:03;;;;;;;53.97;27.98;;;11.10;99.90;;;;;;4958108;28;20654;-79
2023/10/21 07:53:29;;;;;;;60.15;28.65;;;11.20;99.90;;;;;;4938930;28;20047;-79
2023/10/21 07:55:55;;;;;;;55.85;29.77;;;11.20;99.90;;;;;;4970229;28;20058;-79
2023/10/21 07:58:22;;;;;;;51.80;27.58;;;11.20;99.90;;;;;;4952638;28;20061;-81
2023/10/21 08:00:48;;;;;;;41.92;25.23;;;11.30;99.90;;;;;;4962877;28;20046;-81
2023/10/21 08:03:14;;;;;;;72.43;31.95;;;11.40;99.90;;;;;;4939839;28;20420;-84
2023/10/21 08:05:40;;;;;;;51.00;27.70;;;11.50;99.90;;;;;;4959613;28;20126;-83
2023/10/21 08:08:06;;;;;;;58.63;29.90;;;11.50;99.90;;;;;;4976272;28;20051;-82
2023/10/21 08:10:33;;;;;;;49.92;27.30;;;11.60;99.90;;;;;;4955568;28;20066;-82
2023/10/21 08:12:59;;;;;;;48.42;27.65;;;11.70;99.90;;;;;;4968835;28;20416;-83
2023/10/21 08:15:25;;;;;;;49.83;26.85;;;11.70;99.90;;;;;;4956432;28;20035;-82
2023/10/21 08:17:51;;;;;;;45.25;25.70;;;11.80;99.90;;;;;;4956001;28;20113;-83
2023/10/21 08:20:17;;;;;;;35.40;23.65;;;11.80;99.90;;;;;;4940456;28;20054;-80
2023/10/21 08:22:43;;;;;;;43.22;24.52;;;11.90;99.90;;;;;;4969453;28;20069;-80
2023/10/21 08:25:09;;;;;;;53.65;28.38;;;11.90;99.90;;;;;;4965441;28;20503;-80
2023/10/21 08:27:38;;;;;;;49.95;27.33;;;12.00;99.90;;;;;;4971979;28;20056;-81
2023/10/21 08:30:05;;;;;;;56.17;28.85;;;12.00;99.90;;;;;;4952428;28;20603;-81
2023/10/21 08:32:31;;;;;;;79.15;34.38;;;12.10;99.90;;;;;;4950411;28;20047;-80
2023/10/21 08:34:57;;;;;;;38.10;24.92;;;12.10;99.90;;;;;;4940601;28;20049;-80
2023/10/21 08:37:23;;;;;;;36.65;23.52;;;12.20;99.90;;;;;;4956011;28;20042;-80
2023/10/21 08:39:48;;;;;;;41.85;24.67;;;12.20;99.90;;;;;;4961437;28;20043;-80
2023/10/21 08:42:17;;;;;;;48.03;26.95;;;12.30;99.90;;;;;;4936087;28;20041;-80
2023/10/21 08:44:47;;;;;;;44.40;24.65;;;12.30;99.90;;;;;;4970431;28;20037;-80
2023/10/21 08:47:14;;;;;;;41.17;24.75;;;12.40;99.90;;;;;;4941517;28;20055;-80
2023/10/21 08:49:41;;;;;;;36.78;24.50;;;12.40;99.90;;;;;;4953546;28;20074;-80
2023/10/21 08:52:12;;;;;;;39.08;22.10;;;12.50;99.90;;;;;;4960775;28;20042;-82
2023/10/21 08:54:41;;;;;;;29.23;20.63;;;12.50;99.90;;;;;;4957459;28;20070;-81
2023/10/21 08:57:06;;;;;;;28.10;19.38;;;12.60;99.90;;;;;;4948822;28;20042;-83
2023/10/21 08:59:33;;;;;;;33.03;20.63;;;12.70;99.90;;;;;;4954557;28;20054;-82
2023/10/21 09:01:58;;;;;;;30.00;20.52;;;12.80;99.90;;;;;;4969561;28;20050;-82
2023/10/21 09:04:25;;;;;;;24.30;16.67;;;13.00;99.90;;;;;;4963405;28;20133;-81
2023/10/21 09:07:00;;;;;;;28.58;17.70;;;13.10;99.90;;;;;;4944066;28;20407;-81
2023/10/21 09:09:28;;;;;;;23.23;15.38;;;13.10;99.90;;;;;;4971086;28;20090;-83
2023/10/21 09:12:13;;;;;;;24.58;15.88;;;13.20;99.90;;;;;;4951626;28;20042;-82
2023/10/21 09:14:55;;;;;;;18.48;14.30;;;13.20;99.90;;;;;;4952868;28;20496;-84
2023/10/21 09:17:32;;;;;;;19.98;13.38;;;13.30;99.90;;;;;;4955439;28;20035;-84
2023/10/21 09:19:58;;;;;;;19.45;13.57;;;13.30;99.90;;;;;;4966780;28;20050;-82
2023/10/21 09:22:28;;;;;;;24.20;15.05;;;13.40;99.90;;;;;;4965162;28;20043;-82
2023/10/21 09:25:16;;;;;;;19.67;13.27;;;13.40;99.90;;;;;;4960136;28;20117;-81
2023/10/21 09:28:01;;;;;;;18.67;12.20;;;13.50;99.90;;;;;;4968158;28;20046;-83
2023/10/21 09:30:28;;;;;;;15.88;11.32;;;13.50;99.90;;;;;;4952777;28;20106;-81
2023/10/21 09:33:05;;;;;;;19.77;12.68;;;13.60;99.90;;;;;;4967813;28;20053;-81
2023/10/21 09:35:30;;;;;;;18.75;12.20;;;13.60;99.90;;;;;;4972601;28;20035;-82
2023/10/21 09:37:57;;;;;;;14.65;10.30;;;13.60;99.90;;;;;;4967323;28;20045;-81
2023/10/21 09:40:26;;;;;;;17.02;10.25;;;13.60;99.90;;;;;;4948272;28;20079;-80
2023/10/21 09:42:52;;;;;;;14.70;10.50;;;13.50;99.90;;;;;;4941138;28;20047;-82
2023/10/21 09:45:18;;;;;;;16.50;10.60;;;13.60;99.90;;;;;;4965677;28;20035;-83
2023/10/21 09:47:48;;;;;;;15.50;9.85;;;13.60;99.90;;;;;;4951290;28;20105;-83
2023/10/21 09:50:15;;;;;;;12.70;9.38;;;13.60;99.90;;;;;;4969116;28;20052;-83
2023/10/21 09:52:51;;;;;;;14.73;7.32;;;13.60;99.90;;;;;;4955351;28;20063;-83
2023/10/21 09:55:18;;;;;;;9.25;5.43;;;13.60;99.90;;;;;;4952999;28;20097;-84
2023/10/21 09:57:45;;;;;;;9.13;4.90;;;13.60;99.90;;;;;;4967380;28;20043;-83
2023/10/21 10:00:12;;;;;;;7.38;4.90;;;13.60;99.90;;;;;;4969291;28;20034;-78
2023/10/21 10:02:40;;;;;;;8.68;4.50;;;13.60;99.90;;;;;;4972496;28;20439;-82
2023/10/21 10:05:07;;;;;;;9.75;5.03;;;13.50;99.90;;;;;;4969240;28;20130;-83
2023/10/21 10:07:35;;;;;;;6.47;3.85;;;13.50;99.90;;;;;;4963786;28;20104;-81
2023/10/21 10:10:05;;;;;;;10.52;4.72;;;13.50;99.90;;;;;;4953285;28;20135;-81
2023/10/21 10:12:54;;;;;;;7.90;4.80;;;13.50;99.90;;;;;;4969992;28;20042;-82
2023/10/21 10:15:33;;;;;;;7.88;4.47;;;13.50;99.90;;;;;;4952531;28;20043;-81
2023/10/21 10:18:08;;;;;;;9.65;5.90;;;13.40;99.90;;;;;;4968954;28;20039;-81
2023/10/21 10:20:43;;;;;;;5.38;3.60;;;13.40;99.90;;;;;;4953646;28;20039;-84
2023/10/21 10:23:09;;;;;;;5.07;3.60;;;13.40;99.90;;;;;;4961290;28;20054;-84
2023/10/21 10:25:39;;;;;;;5.93;3.88;;;13.50;99.90;;;;;;4942856;28;20034;-83
2023/10/21 10:28:09;;;;;;;6.68;4.05;;;13.60;99.90;;;;;;4938554;28;20562;-84
2023/10/21 10:30:38;;;;;;;3.28;2.17;;;13.70;99.90;;;;;;4953854;28;20645;-82
2023/10/21 10:33:06;;;;;;;4.82;2.30;;;13.80;99.90;;;;;;4968561;28;20747;-84
2023/10/21 10:35:34;;;;;;;3.53;1.60;;;13.80;99.90;;;;;;4967880;28;20121;-83
2023/10/21 10:38:01;;;;;;;2.42;1.60;;;13.80;99.90;;;;;;4969645;28;20488;-79
2023/10/21 10:40:35;;;;;;;2.65;1.67;;;13.70;99.90;;;;;;4985511;28;20030;-80
2023/10/21 10:43:03;;;;;;;2.22;1.80;;;13.70;99.90;;;;;;4953631;28;20058;-77
2023/10/21 10:45:32;;;;;;;6.15;1.92;;;13.70;99.90;;;;;;4949358;28;20043;-78
2023/10/21 10:48:00;;;;;;;4.65;1.90;;;13.80;99.90;;;;;;4965450;28;20073;-79
2023/10/21 10:50:26;;;;;;;3.90;1.77;;;13.80;99.90;;;;;;4963640;28;20102;-77
2023/10/21 10:52:53;;;;;;;2.85;1.70;;;13.90;99.90;;;;;;4968501;28;20047;-78
2023/10/21 10:55:19;;;;;;;2.75;1.65;;;14.00;99.90;;;;;;4951850;28;20043;-77
2023/10/21 10:57:46;;;;;;;2.75;1.85;;;14.10;99.90;;;;;;4965121;28;20049;-77
2023/10/21 11:00:20;;;;;;;1.85;1.50;;;14.00;99.90;;;;;;4922296;28;20469;-77
2023/10/21 11:02:47;;;;;;;2.60;1.55;;;13.90;99.90;;;;;;4964641;28;20042;-77
2023/10/21 11:05:21;;;;;;;4.95;1.80;;;13.80;99.90;;;;;;4949635;28;20471;-77
2023/10/21 11:07:49;;;;;;;5.15;1.48;;;13.80;99.90;;;;;;4962448;28;20137;-77
2023/10/21 11:10:19;;;;;;;2.40;1.48;;;13.70;99.90;;;;;;4964502;28;20109;-77
2023/10/21 11:12:47;;;;;;;2.35;1.48;;;13.60;99.90;;;;;;4963472;28;20042;-77
2023/10/21 11:15:12;;;;;;;1.73;1.50;;;13.60;99.90;;;;;;4961882;28;20043;-79
2023/10/21 11:17:39;;;;;;;2.00;1.80;;;13.60;99.90;;;;;;4967441;28;20117;-78
2023/10/21 11:20:07;;;;;;;3.70;1.80;;;13.60;99.90;;;;;;4947082;28;20130;-82
2023/10/21 11:22:33;;;;;;;2.03;1.42;;;13.60;99.90;;;;;;4956422;28;20608;-79
2023/10/21 11:24:59;;;;;;;4.25;1.52;;;13.70;99.90;;;;;;4940976;28;20046;-78
2023/10/21 11:27:26;;;;;;;2.40;1.50;;;13.70;99.90;;;;;;4948810;28;20060;-78
2023/10/21 11:29:53;;;;;;;3.33;1.65;;;13.70;99.90;;;;;;4966691;28;20097;-78
2023/10/21 11:32:27;;;;;;;2.80;1.88;;;13.70;99.90;;;;;;4969470;28;20104;-78
2023/10/21 11:35:00;;;;;;;2.03;1.50;;;13.70;99.90;;;;;;4967728;28;20388;-78
2023/10/21 11:37:26;;;;;;;2.50;1.80;;;13.70;99.90;;;;;;4953708;28;20687;-79
2023/10/21 11:39:52;;;;;;;3.28;1.50;;;13.70;99.90;;;;;;4952610;28;20051;-78
2023/10/21 11:42:18;;;;;;;2.60;1.55;;;13.90;99.90;;;;;;4970049;28;20046;-78
2023/10/21 11:44:58;;;;;;;3.58;1.65;;;14.10;99.90;;;;;;4970412;28;20042;-78
2023/10/21 11:47:26;;;;;;;2.05;1.30;;;14.20;99.90;;;;;;4954111;28;20039;-78
2023/10/21 11:49:54;;;;;;;2.25;1.30;;;14.10;99.90;;;;;;4952949;28;20077;-78
2023/10/21 11:52:29;;;;;;;2.08;1.20;;;14.00;99.90;;;;;;4937210;28;20085;-78
2023/10/21 12:16:29;;;;;;;3.65;1.65;;;13.40;99.90;;;;;;4944826;28;20101;-78
2023/10/21 12:24:59;;;;;;;2.75;1.50;;;13.50;99.90;;;;;;4988415;28;20039;-78
2023/10/21 12:39:57;;;;;;;2.00;1.30;;;13.90;99.90;;;;;;4961700;28;20050;-78
2023/10/21 12:42:29;;;;;;;2.70;1.55;;;13.90;99.90;;;;;;4949599;28;20039;-78
2023/10/21 12:44:57;;;;;;;;;;;14.00;99.90;;;;;;4971374;28;20035;-79
2023/10/21 12:47:24;;;;;;;5.75;1.40;;;13.90;99.90;;;;;;4965603;28;20378;-78
2023/10/21 12:49:50;;;;;;;1.92;1.25;;;13.90;99.90;;;;;;4955273;28;20448;-79
2023/10/21 12:52:17;;;;;;;3.38;1.38;;;14.00;99.90;;;;;;4966274;28;20121;-79
2023/10/21 12:54:43;;;;;;;2.65;1.35;;;14.10;99.90;;;;;;4951874;28;20035;-80
2023/10/21 12:57:14;;;;;;;2.90;1.60;;;14.10;99.90;;;;;;4971014;28;20122;-81
2023/10/21 12:59:40;;;;;;;4.97;1.40;;;14.20;99.90;;;;;;4967356;28;20035;-80
2023/10/21 13:02:08;;;;;;;3.45;1.17;;;14.30;99.90;;;;;;4949491;28;20403;-80
2023/10/21 13:04:37;;;;;;;4.90;1.83;;;14.40;99.90;;;;;;4951618;28;20058;-80
2023/10/21 13:07:07;;;;;;;3.47;1.50;;;14.60;99.90;;;;;;4954162;28;20047;-80
2023/10/21 13:09:33;;;;;;;3.22;1.52;;;14.70;99.90;;;;;;4967862;28;20089;-81
2023/10/21 13:12:00;;;;;;;3.25;1.30;;;14.70;99.90;;;;;;4968932;28;20122;-81
2023/10/21 13:14:29;;;;;;;4.40;1.70;;;14.70;99.90;;;;;;4954683;28;20122;-80